Time;durP1;ratioP1;P1;durP2;ratioP2;P2;SDS_P1;SDS_P2;PMS_P1;PMS_P2;Temp;Humidity;BMP_temperature;BMP_pressure;BME280_temperature;BME280_humidity;BME280_pressure;Samples;Min_cycle;Max_cycle;Signal;HPM_P1;HPM_P2
2021/08/05 00:00:03;;;;;;;4.10;2.40;;;16.00;99.90;;;;;;5036526;28;20112;-69
2021/08/05 00:02:32;;;;;;;3.72;2.15;;;16.10;99.90;;;;;;5037708;28;20071;-69
2021/08/05 00:05:00;;;;;;;4.18;2.35;;;16.10;99.90;;;;;;5034776;28;20065;-69
2021/08/05 00:07:27;;;;;;;3.78;2.25;;;16.10;99.90;;;;;;5029409;28;20057;-69
2021/08/05 00:09:54;;;;;;;6.03;3.53;;;16.10;99.90;;;;;;5023879;28;20044;-69
2021/08/05 00:12:21;;;;;;;4.53;2.67;;;16.10;99.90;;;;;;5028447;28;20048;-69
2021/08/05 00:14:49;;;;;;;3.72;2.28;;;16.00;99.90;;;;;;5039297;28;20048;-69
2021/08/05 00:17:16;;;;;;;3.75;2.22;;;16.10;99.90;;;;;;5027559;28;20045;-68
2021/08/05 00:19:43;;;;;;;3.85;1.92;;;16.10;99.90;;;;;;5040044;28;20052;-68
2021/08/05 00:22:11;;;;;;;3.60;2.20;;;16.10;99.90;;;;;;5037142;28;20045;-68
2021/08/05 00:24:38;;;;;;;3.63;1.98;;;16.10;99.90;;;;;;5038396;28;20053;-69
2021/08/05 00:27:09;;;;;;;4.05;2.17;;;16.10;99.90;;;;;;5017205;28;20046;-69
2021/08/05 00:29:36;;;;;;;4.60;2.38;;;16.10;99.90;;;;;;5032067;28;20415;-68
2021/08/05 00:32:04;;;;;;;3.15;2.03;;;16.10;99.90;;;;;;5036501;28;20033;-67
2021/08/05 00:34:31;;;;;;;3.55;2.25;;;16.10;99.90;;;;;;5027795;28;20037;-68
2021/08/05 00:36:59;;;;;;;4.05;2.20;;;16.10;99.90;;;;;;5020883;28;20051;-68
2021/08/05 00:39:26;;;;;;;3.63;2.30;;;16.10;99.90;;;;;;5024756;28;20436;-67
2021/08/05 00:41:54;;;;;;;5.40;2.58;;;16.10;99.90;;;;;;5035659;28;20582;-67
2021/08/05 00:44:22;;;;;;;4.30;2.50;;;16.10;99.90;;;;;;5028563;28;20069;-67
2021/08/05 00:46:49;;;;;;;4.22;2.67;;;16.10;99.90;;;;;;5033753;28;20049;-67
2021/08/05 00:49:17;;;;;;;3.88;2.58;;;16.10;99.90;;;;;;5019176;28;20034;-67
2021/08/05 00:51:44;;;;;;;5.00;2.50;;;16.00;99.90;;;;;;5014520;28;20045;-67
2021/08/05 00:54:12;;;;;;;5.47;2.38;;;16.10;99.90;;;;;;5029914;28;20067;-67
2021/08/05 00:56:39;;;;;;;4.25;2.63;;;16.00;99.90;;;;;;5032519;28;20126;-67
2021/08/05 00:59:07;;;;;;;4.57;2.50;;;16.10;99.90;;;;;;5030985;28;20485;-67
2021/08/05 01:01:41;;;;;;;4.18;2.42;;;16.00;99.90;;;;;;5037404;28;20492;-67
2021/08/05 01:04:09;;;;;;;4.18;2.45;;;16.00;99.90;;;;;;5025760;28;20049;-67
2021/08/05 01:06:46;;;;;;;3.70;2.38;;;16.00;99.90;;;;;;5030854;28;20041;-68
2021/08/05 01:09:43;;;;;;;5.05;2.90;;;16.10;99.90;;;;;;5020788;28;20076;-68
2021/08/05 01:12:48;;;;;;;4.72;2.78;;;16.10;99.90;;;;;;5014694;28;20053;-68
2021/08/05 01:15:27;;;;;;;4.63;2.75;;;16.10;99.90;;;;;;5028941;28;20042;-67
2021/08/05 01:18:00;;;;;;;4.47;2.58;;;16.10;99.90;;;;;;5034251;28;20049;-67
2021/08/05 01:20:29;;;;;;;3.92;2.22;;;16.10;99.90;;;;;;5031309;28;20046;-68
2021/08/05 01:23:10;;;;;;;4.90;2.97;;;16.00;99.90;;;;;;5032497;28;20045;-68
2021/08/05 01:25:43;;;;;;;3.47;2.30;;;16.00;99.90;;;;;;5029580;28;20051;-68
2021/08/05 01:28:12;;;;;;;3.90;2.22;;;16.00;99.90;;;;;;5042756;28;20119;-68
2021/08/05 01:30:42;;;;;;;3.65;2.47;;;16.10;99.90;;;;;;5048904;28;20055;-68
2021/08/05 01:33:11;;;;;;;5.20;2.83;;;16.10;99.90;;;;;;5048448;28;20046;-68
2021/08/05 01:35:42;;;;;;;4.82;3.00;;;16.10;99.90;;;;;;5041289;28;20079;-68
2021/08/05 01:38:11;;;;;;;;;;;16.10;99.90;;;;;;5032637;28;20573;-68
2021/08/05 01:40:40;;;;;;;4.20;2.67;;;16.10;99.90;;;;;;5029548;28;19928;-68
2021/08/05 01:43:08;;;;;;;4.60;2.85;;;16.10;99.90;;;;;;5031102;28;20053;-67
2021/08/05 01:45:38;;;;;;;4.75;3.10;;;16.00;99.90;;;;;;5014749;28;20056;-67
2021/08/05 01:48:06;;;;;;;5.13;2.90;;;16.10;99.90;;;;;;5033309;28;20531;-67
2021/08/05 01:50:34;;;;;;;4.72;2.83;;;16.00;99.90;;;;;;5020604;28;20073;-67
2021/08/05 01:53:02;;;;;;;5.10;2.88;;;16.00;99.90;;;;;;5033236;28;20029;-67
2021/08/05 01:55:29;;;;;;;4.90;3.08;;;16.00;99.90;;;;;;5031547;28;20041;-67
2021/08/05 01:57:57;;;;;;;5.15;3.38;;;16.00;99.90;;;;;;5018627;28;20095;-67
2021/08/05 02:00:25;;;;;;;4.85;3.30;;;16.00;99.90;;;;;;5033990;28;20045;-67
2021/08/05 02:02:55;;;;;;;6.60;3.20;;;16.00;99.90;;;;;;5038408;28;20033;-67
2021/08/05 02:05:30;;;;;;;7.85;3.72;;;16.00;99.90;;;;;;5035151;28;20045;-68
2021/08/05 02:08:07;;;;;;;5.22;3.13;;;16.00;99.90;;;;;;5036968;28;20036;-68
2021/08/05 02:10:38;;;;;;;5.38;4.18;;;16.00;99.90;;;;;;5035962;28;20116;-68
2021/08/05 02:13:14;;;;;;;5.03;3.42;;;16.00;99.90;;;;;;5028441;28;20069;-68
2021/08/05 02:15:49;;;;;;;5.47;3.42;;;16.00;99.90;;;;;;5029416;28;20041;-68
2021/08/05 02:18:18;;;;;;;5.68;3.30;;;16.00;99.90;;;;;;5033152;28;20412;-68
2021/08/05 02:20:47;;;;;;;4.30;3.13;;;16.10;99.90;;;;;;5023566;28;20124;-68
2021/08/05 02:23:15;;;;;;;5.57;3.78;;;16.00;99.90;;;;;;5034873;28;20510;-68
2021/08/05 02:25:46;;;;;;;6.22;3.72;;;16.10;99.90;;;;;;5033921;28;20104;-68
2021/08/05 02:28:14;;;;;;;5.55;3.70;;;16.00;99.90;;;;;;5019679;28;20114;-67
2021/08/05 02:30:43;;;;;;;5.70;3.70;;;16.00;99.90;;;;;;5011672;28;20554;-67
2021/08/05 02:33:12;;;;;;;5.43;3.58;;;16.00;99.90;;;;;;5028556;28;20115;-67
2021/08/05 02:35:44;;;;;;;4.88;3.28;;;16.00;99.90;;;;;;5018525;28;20095;-67
2021/08/05 02:38:12;;;;;;;6.60;3.95;;;16.00;99.90;;;;;;5035782;28;20045;-68
2021/08/05 02:40:41;;;;;;;6.78;3.90;;;16.00;99.90;;;;;;5044243;28;20083;-68
2021/08/05 02:43:10;;;;;;;6.95;4.07;;;16.00;99.90;;;;;;5041611;28;20037;-68
2021/08/05 02:45:39;;;;;;;6.32;4.80;;;16.00;99.90;;;;;;5025473;28;20259;-68
2021/08/05 02:48:07;;;;;;;6.70;4.35;;;16.00;99.90;;;;;;5037525;28;20493;-68
2021/08/05 02:50:36;;;;;;;5.60;3.78;;;16.00;99.90;;;;;;5030638;28;20103;-68
2021/08/05 02:53:05;;;;;;;6.03;3.90;;;16.00;99.90;;;;;;5029520;28;20080;-68
2021/08/05 02:55:33;;;;;;;5.13;3.78;;;16.10;99.90;;;;;;5041097;28;20060;-68
2021/08/05 02:58:01;;;;;;;6.82;4.03;;;16.00;99.90;;;;;;5029589;28;20045;-68
2021/08/05 03:00:29;;;;;;;6.65;4.45;;;16.00;99.90;;;;;;5045810;28;20504;-68
2021/08/05 03:02:57;;;;;;;6.43;4.65;;;16.10;99.90;;;;;;5046388;28;20083;-68
2021/08/05 03:05:25;;;;;;;6.00;4.25;;;16.10;99.90;;;;;;5021690;28;20519;-68
2021/08/05 03:07:52;;;;;;;6.10;3.97;;;16.10;99.90;;;;;;5033341;28;20038;-68
2021/08/05 03:10:19;;;;;;;8.45;4.82;;;16.10;99.90;;;;;;5031146;28;20053;-68
2021/08/05 03:12:47;;;;;;;7.30;4.32;;;16.10;99.90;;;;;;5035077;28;20049;-68
2021/08/05 03:15:14;;;;;;;7.32;4.32;;;16.00;99.90;;;;;;5035442;28;20045;-68
2021/08/05 03:17:42;;;;;;;7.55;4.80;;;16.00;99.90;;;;;;5024868;28;20392;-68
2021/08/05 03:20:15;;;;;;;6.70;4.35;;;16.00;99.90;;;;;;5027647;28;20053;-68
2021/08/05 03:22:46;;;;;;;7.82;4.63;;;16.00;99.90;;;;;;5026893;28;21003;-68
2021/08/05 03:25:13;;;;;;;6.43;4.47;;;15.90;99.90;;;;;;5031754;28;20069;-67
2021/08/05 03:27:41;;;;;;;6.65;4.82;;;15.90;99.90;;;;;;5031991;28;20429;-68
2021/08/05 03:30:09;;;;;;;6.20;4.32;;;15.90;99.90;;;;;;5045521;28;20455;-68
2021/08/05 03:32:37;;;;;;;5.85;4.15;;;15.90;99.90;;;;;;5032584;28;20049;-68
2021/08/05 03:35:04;;;;;;;6.75;4.68;;;15.90;99.90;;;;;;5033103;28;20471;-68
2021/08/05 03:37:31;;;;;;;6.53;4.28;;;15.90;99.90;;;;;;5040242;28;20059;-68
2021/08/05 03:39:59;;;;;;;7.43;4.50;;;15.90;99.90;;;;;;5042846;28;20140;-68
2021/08/05 03:42:26;;;;;;;6.10;3.83;;;15.80;99.90;;;;;;5038978;28;20399;-67
2021/08/05 03:44:53;;;;;;;6.43;4.35;;;15.80;99.90;;;;;;5039736;28;20049;-67
2021/08/05 03:47:20;;;;;;;7.57;5.25;;;15.80;99.90;;;;;;5024933;28;20057;-68
2021/08/05 03:49:48;;;;;;;7.25;4.65;;;15.80;99.90;;;;;;5025406;28;20586;-67
2021/08/05 03:52:15;;;;;;;7.65;4.90;;;15.80;99.90;;;;;;5043979;28;20087;-67
2021/08/05 03:55:01;;;;;;;7.75;4.55;;;15.80;99.90;;;;;;5031842;28;20048;-67
2021/08/05 03:57:29;;;;;;;7.60;5.15;;;15.80;99.90;;;;;;5033632;28;20116;-67
2021/08/05 03:59:56;;;;;;;8.27;4.63;;;15.80;99.90;;;;;;5047214;28;20519;-67
2021/08/05 04:02:23;;;;;;;7.68;4.90;;;15.80;99.90;;;;;;5044838;28;20038;-68
2021/08/05 04:04:51;;;;;;;6.75;4.43;;;15.80;99.90;;;;;;5045081;28;20471;-68
2021/08/05 04:07:18;;;;;;;6.80;4.10;;;15.80;99.90;;;;;;5044751;28;20049;-68
2021/08/05 04:09:47;;;;;;;8.45;5.00;;;15.80;99.90;;;;;;5049907;28;20033;-68
2021/08/05 04:12:14;;;;;;;6.90;4.78;;;15.90;99.90;;;;;;5050516;28;20515;-68
2021/08/05 04:14:42;;;;;;;7.32;5.15;;;15.90;99.90;;;;;;5036945;28;20406;-67
2021/08/05 04:17:09;;;;;;;8.00;4.93;;;15.90;99.90;;;;;;5032996;28;20136;-67
2021/08/05 04:19:36;;;;;;;9.13;5.88;;;15.90;99.90;;;;;;5035585;28;20105;-67
2021/08/05 04:22:03;;;;;;;5.95;4.70;;;15.90;99.90;;;;;;5032821;28;20476;-67
2021/08/05 04:24:31;;;;;;;7.07;4.93;;;15.90;99.90;;;;;;5036849;28;20091;-67
2021/08/05 04:26:58;;;;;;;7.00;5.15;;;15.90;99.90;;;;;;5040006;28;20053;-68
2021/08/05 04:29:25;;;;;;;9.25;6.47;;;15.90;99.90;;;;;;5028617;28;20041;-68
2021/08/05 04:31:53;;;;;;;7.90;5.78;;;15.80;99.90;;;;;;5036211;28;20061;-68
2021/08/05 04:34:21;;;;;;;8.57;5.53;;;15.80;99.90;;;;;;5027020;28;20125;-68
2021/08/05 04:36:48;;;;;;;7.72;5.20;;;15.90;99.90;;;;;;5039515;28;20040;-68
2021/08/05 04:39:15;;;;;;;6.60;4.78;;;15.90;99.90;;;;;;5041307;28;20099;-68
2021/08/05 04:41:42;;;;;;;7.32;4.60;;;15.90;99.90;;;;;;5040633;28;20110;-68
2021/08/05 04:44:10;;;;;;;10.32;5.97;;;15.90;99.90;;;;;;5032351;28;20143;-67
2021/08/05 04:46:38;;;;;;;8.90;6.38;;;15.90;99.90;;;;;;5037839;28;20132;-67
2021/08/05 04:49:06;;;;;;;8.30;5.35;;;15.90;99.90;;;;;;5034779;28;20045;-68
2021/08/05 04:51:33;;;;;;;7.13;5.20;;;15.80;99.90;;;;;;5033723;28;20041;-68
2021/08/05 04:54:02;;;;;;;9.63;7.15;;;15.90;99.90;;;;;;5041509;28;20069;-68
2021/08/05 04:56:31;;;;;;;9.50;6.05;;;16.00;99.90;;;;;;5024473;28;20132;-68
2021/08/05 04:58:59;;;;;;;12.25;9.10;;;15.90;99.90;;;;;;5027194;28;20119;-68
2021/08/05 05:01:26;;;;;;;9.88;6.95;;;16.00;99.90;;;;;;5037974;28;20056;-68
2021/08/05 05:03:53;;;;;;;9.32;6.70;;;16.00;99.90;;;;;;5039786;28;20064;-68
2021/08/05 05:06:21;;;;;;;11.32;7.45;;;16.00;99.90;;;;;;5041780;28;20060;-68
2021/08/05 05:08:48;;;;;;;9.38;6.45;;;16.00;99.90;;;;;;5033475;28;20045;-68
2021/08/05 05:11:16;;;;;;;9.45;6.07;;;16.00;99.90;;;;;;5037651;28;20037;-68
2021/08/05 05:13:43;;;;;;;10.40;6.22;;;16.00;99.90;;;;;;5034286;28;20123;-67
2021/08/05 05:16:11;;;;;;;8.98;6.63;;;16.00;99.90;;;;;;5026118;28;20418;-68
2021/08/05 05:18:38;;;;;;;11.90;8.18;;;16.10;99.90;;;;;;5035914;28;20087;-68
2021/08/05 05:21:05;;;;;;;12.43;7.90;;;16.20;99.90;;;;;;5034891;28;20072;-68
2021/08/05 05:23:33;;;;;;;10.82;6.70;;;16.20;99.90;;;;;;5037000;28;20557;-68
2021/08/05 05:26:01;;;;;;;8.65;6.00;;;16.30;99.90;;;;;;5023638;28;20493;-68
2021/08/05 05:28:30;;;;;;;9.90;6.50;;;16.40;99.90;;;;;;5030577;28;20051;-68
2021/08/05 05:30:59;;;;;;;8.68;5.93;;;16.40;99.90;;;;;;5022194;28;20048;-68
2021/08/05 05:33:27;;;;;;;9.57;5.47;;;16.50;99.90;;;;;;5039478;28;20051;-68
2021/08/05 05:35:55;;;;;;;9.98;5.93;;;16.50;99.90;;;;;;5024376;28;20038;-67
2021/08/05 05:38:23;;;;;;;9.55;7.28;;;16.50;99.90;;;;;;5037498;28;20416;-67
2021/08/05 05:40:50;;;;;;;9.05;5.90;;;16.60;99.90;;;;;;5029498;28;20496;-67
2021/08/05 05:43:18;;;;;;;8.40;6.10;;;16.60;99.90;;;;;;5032276;28;20041;-67
2021/08/05 05:45:45;;;;;;;8.07;5.57;;;16.60;99.90;;;;;;5033993;28;20049;-69
2021/08/05 05:48:13;;;;;;;9.95;6.60;;;16.60;99.90;;;;;;5033366;28;20137;-68
2021/08/05 05:50:41;;;;;;;8.52;6.32;;;16.60;99.90;;;;;;5007665;28;20054;-68
2021/08/05 05:53:09;;;;;;;8.50;5.90;;;16.60;99.90;;;;;;5018395;28;20041;-68
2021/08/05 05:55:39;;;;;;;11.93;7.00;;;16.70;99.90;;;;;;5034553;28;20037;-67
2021/08/05 05:58:07;;;;;;;9.93;6.88;;;16.70;99.90;;;;;;5013945;28;20041;-67
2021/08/05 06:00:35;;;;;;;9.27;6.18;;;16.70;99.90;;;;;;5022115;28;20069;-67
2021/08/05 06:03:05;;;;;;;9.50;6.00;;;16.60;99.90;;;;;;5021991;28;20083;-68
2021/08/05 06:05:33;;;;;;;9.43;6.32;;;16.70;99.90;;;;;;5037918;28;20041;-67
2021/08/05 06:08:02;;;;;;;9.13;6.43;;;16.70;99.90;;;;;;5025028;28;20322;-67
2021/08/05 06:10:29;;;;;;;10.68;6.95;;;16.80;99.90;;;;;;5032118;28;20052;-67
2021/08/05 06:12:56;;;;;;;8.55;6.18;;;16.70;99.90;;;;;;5032349;28;20043;-67
2021/08/05 06:15:23;;;;;;;9.52;5.68;;;16.60;99.90;;;;;;5030746;28;20038;-67
2021/08/05 06:17:51;;;;;;;8.23;5.93;;;16.70;99.90;;;;;;5028453;28;20053;-68
2021/08/05 06:20:20;;;;;;;9.30;6.85;;;16.70;99.90;;;;;;5032445;28;20095;-68
2021/08/05 06:22:48;;;;;;;9.63;5.82;;;16.70;99.90;;;;;;5028268;28;20077;-68
2021/08/05 06:25:17;;;;;;;9.35;6.18;;;16.70;99.90;;;;;;5014012;28;20045;-68
2021/08/05 06:27:46;;;;;;;9.80;7.13;;;16.70;99.90;;;;;;5027901;28;20448;-70
2021/08/05 06:30:15;;;;;;;8.93;5.88;;;16.80;99.90;;;;;;5040515;28;20052;-69
2021/08/05 06:32:42;;;;;;;10.13;6.30;;;16.80;99.90;;;;;;5012976;28;20045;-69
2021/08/05 06:35:11;;;;;;;8.05;5.90;;;16.90;99.90;;;;;;5032629;28;20037;-69
2021/08/05 06:37:39;;;;;;;8.63;6.32;;;16.90;99.90;;;;;;5027805;28;20051;-68
2021/08/05 06:40:10;;;;;;;8.05;6.10;;;16.90;99.90;;;;;;5031078;28;20446;-68
2021/08/05 06:42:37;;;;;;;8.07;5.88;;;16.90;99.90;;;;;;5031322;28;20558;-68
2021/08/05 06:45:07;;;;;;;9.25;6.28;;;16.90;99.90;;;;;;5031807;28;20061;-69
2021/08/05 06:47:38;;;;;;;7.75;5.22;;;17.00;99.90;;;;;;5013025;28;20132;-69
2021/08/05 06:50:06;;;;;;;8.02;6.10;;;17.00;99.90;;;;;;5013149;28;20072;-69
2021/08/05 06:52:33;;;;;;;10.13;6.32;;;17.00;99.90;;;;;;5036364;28;20041;-69
2021/08/05 06:55:01;;;;;;;7.93;5.07;;;17.20;99.90;;;;;;5028043;28;20037;-69
2021/08/05 06:57:28;;;;;;;8.93;4.82;;;17.30;99.90;;;;;;5033833;28;20056;-69
2021/08/05 06:59:55;;;;;;;10.65;7.20;;;17.40;99.90;;;;;;5032744;28;20037;-69
2021/08/05 07:02:22;;;;;;;10.63;7.32;;;17.40;99.90;;;;;;5032132;28;20807;-70
2021/08/05 07:04:50;;;;;;;8.20;5.13;;;17.40;99.90;;;;;;5032471;28;20053;-69
2021/08/05 07:07:17;;;;;;;7.05;5.15;;;17.50;99.90;;;;;;5033052;28;20049;-69
2021/08/05 07:09:44;;;;;;;8.20;5.85;;;17.50;99.90;;;;;;5029483;28;20080;-70
2021/08/05 07:12:12;;;;;;;7.57;5.13;;;17.50;99.90;;;;;;5025926;28;20041;-69
2021/08/05 07:14:41;;;;;;;8.32;5.82;;;17.50;99.90;;;;;;5015610;28;20049;-70
2021/08/05 07:17:09;;;;;;;6.40;4.55;;;17.50;99.90;;;;;;5034145;28;20060;-69
2021/08/05 07:19:36;;;;;;;11.80;5.70;;;17.60;99.90;;;;;;5033713;28;20049;-69
2021/08/05 07:22:04;;;;;;;10.38;6.18;;;17.70;99.90;;;;;;5032975;28;20533;-69
2021/08/05 07:24:31;;;;;;;9.27;6.55;;;17.70;99.90;;;;;;5022101;28;20479;-70
2021/08/05 07:27:00;;;;;;;8.23;5.80;;;17.50;99.90;;;;;;5032815;28;20137;-69
2021/08/05 07:29:29;;;;;;;9.43;6.07;;;17.60;99.90;;;;;;5034152;28;20048;-70
2021/08/05 07:31:59;;;;;;;11.50;6.07;;;17.70;99.90;;;;;;5031437;28;20038;-70
2021/08/05 07:34:26;;;;;;;9.93;6.03;;;17.70;99.90;;;;;;5031011;28;20049;-69
2021/08/05 07:36:54;;;;;;;7.53;5.10;;;17.80;99.90;;;;;;5035119;28;20041;-69
2021/08/05 07:39:21;;;;;;;9.13;6.30;;;18.00;99.90;;;;;;5034770;28;20069;-70
2021/08/05 07:41:48;;;;;;;9.98;4.68;;;18.10;99.90;;;;;;5033865;28;20044;-70
2021/08/05 07:44:16;;;;;;;6.35;4.70;;;18.10;99.90;;;;;;5030789;28;20049;-70
2021/08/05 07:46:44;;;;;;;7.80;5.47;;;18.30;99.90;;;;;;5033974;28;20743;-69
2021/08/05 07:49:11;;;;;;;7.90;5.07;;;18.50;99.90;;;;;;5014883;28;20046;-70
2021/08/05 07:51:38;;;;;;;7.90;5.15;;;18.50;99.90;;;;;;5012536;28;20042;-70
2021/08/05 07:54:07;;;;;;;10.63;5.45;;;18.60;99.90;;;;;;5029465;28;20464;-71
2021/08/05 07:56:34;;;;;;;7.43;4.90;;;18.70;99.90;;;;;;5021792;28;20079;-70
2021/08/05 07:59:02;;;;;;;8.18;5.05;;;18.60;99.90;;;;;;5031123;28;20107;-70
2021/08/05 08:01:29;;;;;;;7.90;5.35;;;18.70;99.90;;;;;;5030230;28;20103;-69
2021/08/05 08:03:56;;;;;;;7.03;4.93;;;18.90;99.90;;;;;;5013861;28;20045;-69
2021/08/05 08:06:24;;;;;;;6.80;4.57;;;19.10;99.90;;;;;;5033440;28;20052;-69
2021/08/05 08:08:53;;;;;;;8.20;4.95;;;19.40;99.90;;;;;;5041910;28;20053;-70
2021/08/05 08:11:23;;;;;;;6.72;4.70;;;19.60;99.90;;;;;;5035664;28;20597;-69
2021/08/05 08:13:52;;;;;;;7.05;5.10;;;19.70;99.90;;;;;;5032305;28;20769;-69
2021/08/05 08:16:20;;;;;;;9.13;5.60;;;19.90;99.90;;;;;;5039645;28;20037;-69
2021/08/05 08:18:49;;;;;;;7.82;5.35;;;19.90;99.90;;;;;;5035959;28;20049;-69
2021/08/05 08:21:18;;;;;;;8.50;5.00;;;20.20;99.90;;;;;;5030615;28;20068;-69
2021/08/05 08:23:46;;;;;;;6.53;4.43;;;20.30;99.90;;;;;;5024064;28;20064;-70
2021/08/05 08:26:14;;;;;;;7.72;4.63;;;20.30;99.90;;;;;;5017147;28;20037;-72
2021/08/05 08:28:42;;;;;;;6.20;4.03;;;20.50;99.90;;;;;;5030393;28;20048;-71
2021/08/05 08:31:09;;;;;;;6.20;4.32;;;20.50;99.90;;;;;;5034143;28;20045;-69
2021/08/05 08:33:37;;;;;;;6.57;4.30;;;20.50;99.90;;;;;;5033171;28;20091;-70
2021/08/05 08:36:04;;;;;;;10.48;6.47;;;20.60;99.90;;;;;;5011612;28;20045;-70
2021/08/05 08:38:33;;;;;;;9.32;5.80;;;20.50;99.90;;;;;;5029764;28;20041;-70
2021/08/05 08:41:01;;;;;;;6.90;4.63;;;20.30;99.90;;;;;;5029588;28;20041;-69
2021/08/05 08:43:29;;;;;;;8.02;5.80;;;20.30;99.90;;;;;;5025589;28;20160;-70
2021/08/05 08:45:56;;;;;;;7.38;5.40;;;20.30;99.90;;;;;;5016013;28;20038;-71
2021/08/05 08:48:28;;;;;;;8.43;5.25;;;20.40;99.90;;;;;;5021622;28;20046;-70
2021/08/05 08:51:02;;;;;;;7.13;4.75;;;20.60;99.90;;;;;;5030687;28;20531;-69
2021/08/05 08:53:39;;;;;;;8.63;6.70;;;21.00;99.90;;;;;;5018664;28;20149;-69
2021/08/05 08:56:07;;;;;;;8.88;5.75;;;20.90;99.90;;;;;;5030454;28;20164;-70
2021/08/05 08:58:34;;;;;;;9.65;5.97;;;21.00;99.90;;;;;;5002895;28;20603;-69
2021/08/05 09:01:03;;;;;;;10.55;6.28;;;21.30;99.90;;;;;;5024328;28;20411;-69
2021/08/05 09:03:30;;;;;;;9.63;5.95;;;21.80;99.90;;;;;;5015691;28;20565;-68
2021/08/05 09:05:58;;;;;;;12.02;8.25;;;22.10;99.90;;;;;;5039717;28;20095;-70
2021/08/05 09:08:25;;;;;;;10.20;7.43;;;21.90;99.90;;;;;;5031187;28;20048;-69
2021/08/05 09:10:57;;;;;;;8.93;5.93;;;21.70;99.90;;;;;;5030755;28;20053;-69
2021/08/05 09:13:24;;;;;;;;;;;21.80;99.90;;;;;;5024216;28;20043;-69
2021/08/05 09:15:51;;;;;;;7.70;5.15;;;22.30;99.90;;;;;;5042459;28;19932;-69
2021/08/05 09:18:26;;;;;;;7.45;5.93;;;22.80;99.90;;;;;;5047117;28;20041;-69
2021/08/05 09:21:16;;;;;;;8.60;5.40;;;23.30;99.90;;;;;;5034299;28;20037;-68
2021/08/05 09:24:04;;;;;;;11.63;6.15;;;23.50;99.90;;;;;;5020321;28;20051;-69
2021/08/05 09:26:42;;;;;;;8.93;6.60;;;23.50;99.90;;;;;;5031772;28;20035;-68
2021/08/05 09:29:18;;;;;;;10.35;5.95;;;23.30;99.90;;;;;;5031373;28;20049;-68
2021/08/05 09:31:53;;;;;;;9.13;5.88;;;22.70;99.90;;;;;;5030461;28;20141;-68
2021/08/05 09:34:33;;;;;;;10.60;6.15;;;22.70;99.90;;;;;;5029265;28;20451;-68
2021/08/05 09:37:04;;;;;;;8.70;5.70;;;22.60;99.90;;;;;;5035574;28;20045;-69
2021/08/05 09:39:34;;;;;;;7.57;5.82;;;22.40;99.90;;;;;;5032661;28;20046;-70
2021/08/05 09:42:07;;;;;;;8.73;6.35;;;22.30;99.90;;;;;;5025703;28;20064;-70
2021/08/05 09:44:37;;;;;;;9.77;6.60;;;22.20;99.90;;;;;;5039599;28;20454;-69
2021/08/05 09:47:12;;;;;;;8.18;5.43;;;22.00;99.90;;;;;;5031657;28;20077;-70
2021/08/05 09:49:54;;;;;;;7.78;5.55;;;21.90;99.90;;;;;;5030478;28;20089;-70
2021/08/05 09:52:29;;;;;;;8.20;4.65;;;21.90;99.90;;;;;;5032127;28;20047;-70
2021/08/05 09:54:59;;;;;;;6.82;4.88;;;22.10;99.90;;;;;;5037965;28;20037;-70
2021/08/05 09:57:35;;;;;;;6.90;3.75;;;22.60;99.90;;;;;;5038661;28;20069;-70
2021/08/05 10:00:14;;;;;;;6.80;3.78;;;23.00;99.90;;;;;;5013247;28;20061;-70
2021/08/05 10:02:44;;;;;;;7.03;3.83;;;23.60;99.90;;;;;;5028010;28;20041;-69
2021/08/05 10:05:19;;;;;;;9.80;6.55;;;24.10;99.90;;;;;;5029229;28;20136;-69
2021/08/05 10:07:51;;;;;;;6.25;4.30;;;24.50;99.90;;;;;;5038494;28;20052;-71
2021/08/05 10:10:26;;;;;;;5.68;4.05;;;24.60;99.90;;;;;;5040999;28;20037;-70
2021/08/05 10:12:54;;;;;;;5.13;3.22;;;23.70;99.90;;;;;;5040394;28;20045;-70
2021/08/05 10:15:22;;;;;;;8.20;4.40;;;23.30;99.90;;;;;;5036321;28;20052;-69
2021/08/05 10:17:54;;;;;;;5.28;3.47;;;23.00;99.90;;;;;;5034847;28;20034;-69
2021/08/05 10:20:24;;;;;;;7.38;4.50;;;22.70;99.90;;;;;;5048231;28;20055;-69
2021/08/05 10:22:52;;;;;;;7.75;5.20;;;22.30;99.90;;;;;;5030166;28;20453;-69
2021/08/05 10:25:24;;;;;;;10.20;6.22;;;21.80;99.90;;;;;;5043361;28;20163;-71
2021/08/05 10:27:54;;;;;;;7.32;4.90;;;21.40;99.90;;;;;;5036577;28;20054;-69
2021/08/05 10:30:21;;;;;;;8.52;4.70;;;21.20;99.90;;;;;;5053894;28;20131;-69
2021/08/05 10:32:52;;;;;;;7.80;5.85;;;21.20;99.90;;;;;;5050522;28;20044;-70
2021/08/05 10:35:20;;;;;;;8.60;4.85;;;21.30;99.90;;;;;;5046820;28;20129;-70
2021/08/05 10:37:49;;;;;;;6.82;5.43;;;21.50;99.90;;;;;;5032604;28;20046;-70
2021/08/05 10:40:17;;;;;;;7.70;4.82;;;21.70;99.90;;;;;;5034444;28;20091;-70
2021/08/05 10:42:46;;;;;;;8.07;5.30;;;21.80;99.90;;;;;;5026822;28;20487;-70
2021/08/05 10:45:20;;;;;;;7.03;4.55;;;22.10;99.90;;;;;;5051245;28;20045;-70
2021/08/05 10:47:49;;;;;;;7.00;4.97;;;22.20;99.90;;;;;;5041350;28;20054;-68
2021/08/05 10:50:19;;;;;;;7.93;4.65;;;22.40;99.90;;;;;;5033131;28;20072;-68
2021/08/05 10:52:51;;;;;;;7.18;5.60;;;22.60;99.90;;;;;;5042617;28;20506;-68
2021/08/05 10:55:19;;;;;;;9.02;5.78;;;22.80;99.90;;;;;;5050194;28;20044;-68
2021/08/05 10:58:14;;;;;;;8.63;5.45;;;22.90;99.90;;;;;;5045224;28;20049;-68
2021/08/05 11:00:51;;;;;;;7.32;4.55;;;22.70;99.90;;;;;;5021003;28;20123;-69
2021/08/05 11:03:39;;;;;;;6.70;4.43;;;22.80;99.90;;;;;;5046290;28;20080;-68
2021/08/05 11:06:24;;;;;;;7.55;5.07;;;23.00;99.90;;;;;;5027456;28;20452;-68
2021/08/05 11:08:52;;;;;;;4.57;2.90;;;23.00;99.90;;;;;;5042645;28;20038;-68
2021/08/05 11:11:19;;;;;;;6.20;4.03;;;23.00;99.90;;;;;;5046891;28;20040;-70
2021/08/05 11:14:07;;;;;;;5.90;3.85;;;23.20;99.90;;;;;;5043577;28;20080;-70
2021/08/05 11:16:53;;;;;;;5.13;3.42;;;23.70;99.90;;;;;;5025663;28;20052;-70
2021/08/05 11:19:28;;;;;;;5.85;3.85;;;24.30;99.90;;;;;;5039530;28;20041;-70
2021/08/05 11:21:57;;;;;;;6.47;3.83;;;24.70;99.90;;;;;;5046056;28;20124;-70
2021/08/05 11:24:42;;;;;;;7.45;4.38;;;24.80;99.90;;;;;;5031811;28;20064;-71
2021/08/05 11:27:15;;;;;;;8.98;6.43;;;24.70;99.90;;;;;;5019057;28;20060;-70
2021/08/05 11:29:42;;;;;;;10.95;5.30;;;25.20;99.90;;;;;;5035247;28;20120;-69
2021/08/05 11:32:22;;;;;;;7.78;5.10;;;25.70;99.90;;;;;;5035841;28;20049;-70
2021/08/05 11:34:58;;;;;;;6.50;4.70;;;25.70;99.90;;;;;;5038601;28;20496;-69
2021/08/05 11:37:26;;;;;;;6.65;3.88;;;26.00;99.90;;;;;;5015366;28;20083;-70
2021/08/05 11:39:56;;;;;;;6.00;3.33;;;25.60;99.90;;;;;;5031076;28;20232;-69
2021/08/05 11:42:25;;;;;;;5.45;3.90;;;25.50;99.90;;;;;;5028011;28;20297;-70
2021/08/05 11:44:59;;;;;;;7.25;4.30;;;25.50;99.90;;;;;;5030362;28;20051;-70
2021/08/05 11:47:37;;;;;;;7.47;4.38;;;25.70;99.90;;;;;;5045635;28;20056;-70
2021/08/05 11:50:12;;;;;;;7.72;4.93;;;25.70;99.90;;;;;;5027488;28;20404;-69
2021/08/05 11:53:01;;;;;;;5.38;3.65;;;25.90;99.90;;;;;;5031742;28;20033;-70
2021/08/05 11:55:33;;;;;;;5.32;3.47;;;25.50;99.90;;;;;;5014692;28;20115;-70
2021/08/05 11:58:02;;;;;;;6.80;3.60;;;25.50;99.90;;;;;;5015333;28;20041;-70
2021/08/05 12:00:39;;;;;;;6.43;3.40;;;25.10;99.90;;;;;;5023321;28;20136;-69
2021/08/05 12:03:10;;;;;;;6.78;3.92;;;25.00;99.90;;;;;;5034088;28;20041;-69
2021/08/05 12:05:43;;;;;;;8.95;3.90;;;24.70;99.90;;;;;;5017447;28;20045;-69
2021/08/05 12:08:11;;;;;;;5.35;3.97;;;24.20;99.90;;;;;;5040187;28;20045;-68
2021/08/05 12:10:41;;;;;;;5.82;3.95;;;24.10;99.90;;;;;;5033386;28;20044;-69
2021/08/05 12:13:21;;;;;;;7.40;4.00;;;23.90;99.90;;;;;;5036851;28;20045;-69
2021/08/05 12:15:55;;;;;;;6.15;4.00;;;24.10;99.90;;;;;;5017565;28;20046;-69
2021/08/05 12:18:26;;;;;;;6.22;3.78;;;24.00;99.90;;;;;;5021613;28;20041;-68
2021/08/05 12:21:00;;;;;;;5.00;3.63;;;23.90;99.90;;;;;;5033305;28;20080;-69
2021/08/05 12:28:31;;;;;;;6.75;4.05;;;24.50;99.90;;;;;;5034443;28;20037;-70
2021/08/05 12:31:03;;;;;;;5.25;3.30;;;25.00;99.90;;;;;;5033083;28;20068;-70
2021/08/05 12:33:40;;;;;;;4.78;3.05;;;25.10;99.90;;;;;;5034827;28;20091;-69
2021/08/05 12:36:15;;;;;;;5.03;3.67;;;25.20;99.90;;;;;;5015814;28;20046;-70
2021/08/05 12:38:45;;;;;;;6.43;3.03;;;25.30;99.90;;;;;;5038107;28;20128;-70
2021/08/05 12:41:15;;;;;;;4.15;2.70;;;25.80;99.90;;;;;;5031121;28;20071;-70
2021/08/05 12:43:44;;;;;;;4.75;3.13;;;26.60;99.90;;;;;;5043967;28;20509;-70
2021/08/05 12:46:12;;;;;;;7.22;2.72;;;27.30;99.90;;;;;;5046924;28;20045;-69
2021/08/05 12:48:41;;;;;;;3.78;2.30;;;27.20;99.90;;;;;;5022249;28;20047;-70
2021/08/05 12:51:16;;;;;;;4.78;2.85;;;28.00;99.90;;;;;;5028818;28;20037;-70
2021/08/05 12:53:44;;;;;;;4.65;2.45;;;28.20;99.90;;;;;;5028268;28;20176;-70
2021/08/05 12:56:12;;;;;;;4.72;2.20;;;28.50;99.90;;;;;;5041735;28;20102;-70
2021/08/05 12:58:39;;;;;;;5.35;2.47;;;28.30;99.90;;;;;;5027739;28;20046;-69
2021/08/05 13:01:21;;;;;;;4.40;2.22;;;27.80;99.90;;;;;;5041271;28;20431;-69
2021/08/05 13:03:56;;;;;;;4.38;2.53;;;27.70;99.90;;;;;;5041359;28;20073;-69